createdAt,value
2018-05-18T00:01:25.626Z,18.00
2018-05-18T00:03:53.063Z,17.23
2018-05-18T00:06:21.265Z,17.97
2018-05-18T00:08:48.695Z,17.57
2018-05-18T00:11:16.898Z,18.70
2018-05-18T00:13:44.322Z,19.00
2018-05-18T00:16:12.514Z,18.70
2018-05-18T00:18:39.956Z,17.33
2018-05-18T00:21:08.158Z,17.27
2018-05-18T00:23:35.602Z,16.23
2018-05-18T00:26:03.035Z,17.93
2018-05-18T00:28:31.246Z,17.03
2018-05-18T00:30:58.663Z,18.60
2018-05-18T00:33:26.869Z,17.30
2018-05-18T00:35:54.302Z,18.50
2018-05-18T00:38:22.514Z,19.50
2018-05-18T00:40:49.955Z,19.17
2018-05-18T00:43:17.457Z,18.10
2018-05-18T00:45:45.574Z,16.07
2018-05-18T00:48:13.008Z,18.43
2018-05-18T00:50:41.220Z,17.10
2018-05-18T00:53:08.654Z,17.13
2018-05-18T00:55:41.729Z,16.53
2018-05-18T00:58:09.623Z,17.60
2018-05-18T01:00:36.983Z,16.77
2018-05-18T01:03:04.411Z,15.83
2018-05-18T01:05:32.617Z,17.40
2018-05-18T01:08:00.047Z,17.80
2018-05-18T01:10:27.483Z,17.73
2018-05-18T01:12:55.699Z,17.60
2018-05-18T01:15:23.149Z,17.80
2018-05-18T01:17:50.571Z,18.53
2018-05-18T01:20:18.786Z,17.87
2018-05-18T01:22:46.210Z,17.10
2018-05-18T01:25:14.422Z,17.33
2018-05-18T01:27:41.854Z,17.40
2018-05-18T01:30:09.294Z,19.87
2018-05-18T01:32:37.498Z,17.60
2018-05-18T01:35:04.954Z,19.10
2018-05-18T01:37:33.528Z,17.77
2018-05-18T01:40:00.962Z,16.30
2018-05-18T01:42:29.155Z,18.40
2018-05-18T01:44:56.588Z,19.80
2018-05-18T01:47:24.786Z,18.43
2018-05-18T01:49:52.212Z,19.63
2018-05-18T01:52:20.414Z,19.27
2018-05-18T01:54:47.839Z,18.70
2018-05-18T01:57:16.056Z,19.70
2018-05-18T01:59:43.482Z,19.57
2018-05-18T02:02:11.686Z,21.53
2018-05-18T02:04:39.512Z,19.07
2018-05-18T02:07:07.728Z,20.87
2018-05-18T02:09:35.146Z,20.30
2018-05-18T02:12:03.357Z,19.87
2018-05-18T02:14:31.182Z,19.53
2018-05-18T02:16:59.763Z,19.83
2018-05-18T02:19:27.191Z,19.27
2018-05-18T02:21:54.629Z,18.97
2018-05-18T02:24:22.062Z,19.93
2018-05-18T02:26:49.499Z,17.87
2018-05-18T02:29:17.702Z,19.13
2018-05-18T02:31:45.147Z,17.53
2018-05-18T02:34:12.610Z,18.43
2018-05-18T02:36:40.788Z,16.60
2018-05-18T02:39:09.359Z,16.07
2018-05-18T02:41:36.804Z,16.13
2018-05-18T02:44:05.000Z,14.93
2018-05-18T02:46:32.834Z,16.73
2018-05-18T02:49:00.665Z,14.80
2018-05-18T02:51:28.505Z,15.93
2018-05-18T02:53:56.325Z,14.87
2018-05-18T02:56:24.536Z,14.80
2018-05-18T02:58:52.735Z,14.03
2018-05-18T03:01:20.935Z,16.60
2018-05-18T03:03:48.367Z,16.90
2018-05-18T03:06:15.866Z,16.20
2018-05-18T03:08:44.057Z,15.93
2018-05-18T03:11:11.480Z,17.20
2018-05-18T03:13:39.329Z,16.03
2018-05-18T03:16:06.762Z,15.80
2018-05-18T03:18:34.206Z,16.17
2018-05-18T03:21:02.121Z,15.23
2018-05-18T03:23:30.235Z,13.90
2018-05-18T03:25:57.661Z,13.07
2018-05-18T03:28:25.878Z,13.23
2018-05-18T03:30:53.306Z,12.90
2018-05-18T03:33:20.746Z,12.60
2018-05-18T03:35:48.943Z,13.77
2018-05-18T03:38:17.152Z,13.83
2018-05-18T03:40:44.599Z,13.77
2018-05-18T03:43:12.035Z,14.30
2018-05-18T03:45:39.462Z,13.23
2018-05-18T03:48:07.678Z,13.53
2018-05-18T03:50:35.114Z,14.33
2018-05-18T03:53:02.550Z,13.90
2018-05-18T03:55:30.749Z,12.70
2018-05-18T03:57:58.194Z,12.33
2018-05-18T04:00:26.389Z,13.50
2018-05-18T04:03:05.571Z,14.73
2018-05-18T04:05:44.853Z,15.40
2018-05-18T04:08:24.679Z,15.53
2018-05-18T04:10:52.062Z,14.57
2018-05-18T04:13:19.902Z,15.40
2018-05-18T04:15:47.333Z,13.60
2018-05-18T04:18:15.547Z,15.10
2018-05-18T04:20:42.977Z,14.73
2018-05-18T04:23:10.798Z,13.60
2018-05-18T04:25:39.198Z,14.60
2018-05-18T04:28:07.029Z,16.33
2018-05-18T04:30:34.473Z,14.60
2018-05-18T04:33:01.917Z,13.60
2018-05-18T04:35:29.739Z,12.40
2018-05-18T04:37:57.562Z,11.63
2018-05-18T04:40:25.438Z,11.83
2018-05-18T04:42:52.895Z,13.60
2018-05-18T04:45:20.330Z,14.90
2018-05-18T04:47:48.227Z,14.47
2018-05-18T04:50:15.666Z,15.33
2018-05-18T04:52:44.240Z,13.93
2018-05-18T04:55:11.691Z,14.13
2018-05-18T04:57:39.121Z,14.60
2018-05-18T05:00:07.387Z,14.90
2018-05-18T05:02:35.224Z,13.10
2018-05-18T05:05:03.055Z,12.40
2018-05-18T05:07:30.511Z,12.97
2018-05-18T05:09:57.954Z,11.83
2018-05-18T05:12:25.378Z,12.20
2018-05-18T05:14:53.594Z,11.50
2018-05-18T05:17:21.022Z,11.73
2018-05-18T05:19:49.227Z,15.60
2018-05-18T05:22:16.663Z,12.60
2018-05-18T05:24:44.495Z,11.07
2018-05-18T05:27:11.918Z,11.37
2018-05-18T05:29:39.367Z,11.67
2018-05-18T05:32:06.808Z,11.07
2018-05-18T05:34:34.248Z,11.30
2018-05-18T05:37:02.443Z,11.10
2018-05-18T05:39:29.886Z,11.00
2018-05-18T05:41:57.710Z,11.80
2018-05-18T05:44:25.153Z,10.87
2018-05-18T05:46:52.670Z,12.00
2018-05-18T05:49:20.025Z,12.30
2018-05-18T05:51:48.230Z,13.13
2018-05-18T05:54:15.663Z,12.50
2018-05-18T05:56:43.112Z,12.70
2018-05-18T05:59:11.301Z,13.30
2018-05-18T06:01:38.745Z,12.97
2018-05-18T06:04:06.206Z,13.33
2018-05-18T06:06:33.646Z,12.63
2018-05-18T06:09:01.083Z,13.07
2018-05-18T06:11:28.921Z,12.07
2018-05-18T06:13:56.367Z,11.93
2018-05-18T06:16:24.211Z,12.27
2018-05-18T06:18:51.659Z,13.00
2018-05-18T06:21:19.879Z,12.90
2018-05-18T06:23:47.319Z,12.00
2018-05-18T06:26:14.764Z,13.87
2018-05-18T06:28:42.261Z,13.60
2018-05-18T06:31:09.654Z,12.77
2018-05-18T06:33:37.490Z,13.60
2018-05-18T06:36:05.703Z,13.90
2018-05-18T06:38:33.147Z,14.10
2018-05-18T06:41:00.589Z,14.77
2018-05-18T06:43:28.428Z,13.47
2018-05-18T06:45:56.267Z,14.70
2018-05-18T06:48:24.467Z,14.83
2018-05-18T06:50:52.678Z,14.70
2018-05-18T06:53:20.107Z,13.83
2018-05-18T06:55:47.943Z,13.83
2018-05-18T06:58:15.769Z,14.90
2018-05-18T07:00:44.356Z,14.47
2018-05-18T07:03:11.811Z,13.30
2018-05-18T07:05:39.241Z,14.20
2018-05-18T07:08:07.468Z,13.47
2018-05-18T07:10:35.007Z,14.33
2018-05-18T07:13:02.397Z,14.23
2018-05-18T07:15:29.826Z,13.20
2018-05-18T07:17:57.671Z,14.00
2018-05-18T07:20:25.109Z,14.90
2018-05-18T07:22:52.949Z,12.67
2018-05-18T07:25:20.387Z,13.87
2018-05-18T07:27:47.827Z,13.30
2018-05-18T07:30:15.270Z,14.80
2018-05-18T07:32:42.711Z,14.07
2018-05-18T07:35:10.148Z,14.70
2018-05-18T07:37:38.360Z,14.33
2018-05-18T07:40:05.805Z,13.90
2018-05-18T07:42:33.259Z,14.07
2018-05-18T07:45:00.679Z,15.13
2018-05-18T07:47:28.901Z,13.80
2018-05-18T07:49:56.351Z,14.63
2018-05-18T07:52:23.799Z,13.10
2018-05-18T07:54:51.235Z,15.70
2018-05-18T07:57:19.446Z,14.43
2018-05-18T07:59:46.890Z,14.23
2018-05-18T08:02:14.354Z,14.03
2018-05-18T08:04:41.789Z,15.37
2018-05-18T08:07:09.237Z,13.73
2018-05-18T08:09:36.678Z,15.20
2018-05-18T08:12:04.878Z,14.87
2018-05-18T08:14:32.315Z,16.80
2018-05-18T08:17:00.532Z,14.50
2018-05-18T08:19:27.973Z,16.30
2018-05-18T08:21:55.412Z,16.00
2018-05-18T08:24:22.847Z,17.30
2018-05-18T08:27:03.067Z,14.90
2018-05-18T08:29:35.342Z,15.83
2018-05-18T08:32:03.200Z,15.60
2018-05-18T08:34:30.635Z,14.70
2018-05-18T08:36:58.075Z,14.70
2018-05-18T08:39:25.519Z,15.10
2018-05-18T08:41:53.731Z,15.50
2018-05-18T08:44:21.300Z,15.87
2018-05-18T08:46:49.402Z,15.27
2018-05-18T08:49:16.919Z,16.27
2018-05-18T08:51:45.118Z,15.10
2018-05-18T08:54:12.576Z,15.63
2018-05-18T08:56:40.018Z,15.27
2018-05-18T08:59:07.464Z,14.33
2018-05-18T09:01:34.906Z,14.30
2018-05-18T09:04:02.360Z,13.13
2018-05-18T09:06:29.799Z,15.13
2018-05-18T09:08:57.303Z,14.80
2018-05-18T09:11:25.446Z,14.03
2018-05-18T09:13:52.903Z,14.97
2018-05-18T09:16:21.274Z,14.60
2018-05-18T09:18:49.123Z,15.37
2018-05-18T09:21:16.562Z,15.37
2018-05-18T09:23:44.779Z,14.10
2018-05-18T09:26:12.217Z,15.77
2018-05-18T09:28:39.658Z,14.83
2018-05-18T09:31:07.871Z,16.40
2018-05-18T09:33:35.328Z,16.13
2018-05-18T09:36:02.763Z,15.27
2018-05-18T09:38:30.211Z,13.90
2018-05-18T09:40:57.658Z,13.43
2018-05-18T09:43:25.872Z,13.70
2018-05-18T09:45:53.332Z,13.30
2018-05-18T09:48:21.170Z,13.60
2018-05-18T09:50:49.009Z,14.63
2018-05-18T09:53:17.230Z,12.93
2018-05-18T09:55:45.064Z,13.37
2018-05-18T09:58:13.267Z,12.33
2018-05-18T10:00:41.555Z,11.27
2018-05-18T10:03:08.924Z,12.03
2018-05-18T10:05:36.370Z,11.37
2018-05-18T10:08:03.816Z,11.00
2018-05-18T10:10:31.274Z,11.23
2018-05-18T10:12:58.714Z,11.53
2018-05-18T10:15:26.163Z,10.80
2018-05-18T10:17:53.606Z,10.87
2018-05-18T10:20:21.443Z,10.00
2018-05-18T10:22:48.895Z,10.90
2018-05-18T10:25:22.965Z,9.63
2018-05-18T10:27:50.398Z,9.03
2018-05-18T10:30:17.847Z,11.07
2018-05-18T10:32:45.286Z,10.70
2018-05-18T10:35:13.502Z,10.03
2018-05-18T10:37:40.963Z,11.80
2018-05-18T10:40:08.417Z,11.10
2018-05-18T10:42:35.856Z,11.70
2018-05-18T10:45:03.298Z,10.40
2018-05-18T10:47:31.514Z,10.87
2018-05-18T10:49:58.967Z,10.77
2018-05-18T10:52:26.414Z,11.00
2018-05-18T10:54:53.852Z,11.00
2018-05-18T10:57:21.288Z,11.17
2018-05-18T10:59:49.507Z,10.30
2018-05-18T11:02:16.950Z,10.00
2018-05-18T11:04:44.791Z,9.77
2018-05-18T11:07:12.996Z,8.97
2018-05-18T11:09:40.463Z,9.67
2018-05-18T11:12:07.901Z,10.30
2018-05-18T11:14:35.732Z,11.00
2018-05-18T11:17:03.946Z,9.13
2018-05-18T11:19:31.403Z,10.10
2018-05-18T11:21:58.846Z,9.57
2018-05-18T11:24:27.052Z,9.63
2018-05-18T11:26:54.500Z,10.13
2018-05-18T11:29:21.946Z,10.77
2018-05-18T11:31:50.164Z,9.63
2018-05-18T11:34:17.599Z,11.57
2018-05-18T11:36:45.052Z,9.63
2018-05-18T11:39:12.614Z,9.60
2018-05-18T11:41:39.951Z,9.83
2018-05-18T11:44:08.072Z,10.30
2018-05-18T11:46:36.297Z,9.70
2018-05-18T11:49:03.727Z,8.80
2018-05-18T11:51:31.938Z,11.20
2018-05-18T11:53:59.777Z,10.93
2018-05-18T11:56:27.214Z,11.60
2018-05-18T11:58:54.657Z,10.97
2018-05-18T12:01:23.231Z,10.77
2018-05-18T12:03:50.666Z,9.87
2018-05-18T12:06:18.875Z,10.73
2018-05-18T12:08:46.702Z,10.80
2018-05-18T12:11:14.145Z,9.17
2018-05-18T12:13:41.978Z,9.20
2018-05-18T12:16:09.815Z,9.10
2018-05-18T12:18:37.642Z,11.20
2018-05-18T12:21:05.085Z,10.57
2018-05-18T12:23:32.532Z,11.37
2018-05-18T12:25:59.969Z,11.03
2018-05-18T12:28:27.799Z,9.73
2018-05-18T12:30:55.237Z,10.60
2018-05-18T12:33:22.693Z,11.07
2018-05-18T12:35:50.131Z,10.80
2018-05-18T12:38:17.676Z,10.23
2018-05-18T12:40:45.027Z,10.27
2018-05-18T12:43:12.471Z,9.70
2018-05-18T12:45:40.669Z,9.07
2018-05-18T12:48:08.118Z,10.43
2018-05-18T12:50:35.555Z,9.63
2018-05-18T12:53:03.763Z,10.07
2018-05-18T12:55:31.208Z,9.30
2018-05-18T12:57:58.650Z,10.23
2018-05-18T13:00:26.087Z,9.77
2018-05-18T13:02:54.303Z,10.60
2018-05-18T13:05:21.739Z,9.43
2018-05-18T13:07:49.178Z,8.90
2018-05-18T13:10:17.402Z,9.13
2018-05-18T13:12:45.239Z,10.10
2018-05-18T13:15:12.732Z,10.10
2018-05-18T13:17:40.178Z,8.63
2018-05-18T13:20:07.611Z,9.80
2018-05-18T13:22:35.060Z,10.40
2018-05-18T13:25:02.921Z,9.17
2018-05-18T13:27:31.119Z,10.40
2018-05-18T13:29:58.571Z,9.47
2018-05-18T13:32:26.106Z,10.83
2018-05-18T13:34:53.476Z,10.33
2018-05-18T13:37:20.919Z,9.60
2018-05-18T13:39:48.504Z,8.20
2018-05-18T13:42:15.938Z,8.80
2018-05-18T13:44:43.435Z,8.90
2018-05-18T13:47:11.229Z,8.80
2018-05-18T13:49:38.663Z,9.50
2018-05-18T13:52:06.099Z,9.20
2018-05-18T13:54:33.543Z,8.23
2018-05-18T13:57:02.291Z,9.30
2018-05-18T13:59:30.950Z,7.73
2018-05-18T14:01:59.732Z,8.77
2018-05-18T14:04:28.687Z,8.87
2018-05-18T14:06:56.882Z,8.60
2018-05-18T14:09:24.327Z,8.67
2018-05-18T14:11:51.763Z,8.53
2018-05-18T14:14:19.202Z,8.93
2018-05-18T14:16:47.402Z,8.50
2018-05-18T14:19:15.611Z,8.70
2018-05-18T14:21:43.052Z,7.63
2018-05-18T14:24:10.495Z,7.90
2018-05-18T14:26:38.697Z,7.23
2018-05-18T14:29:06.147Z,7.90
2018-05-18T14:31:33.640Z,8.10
2018-05-18T14:34:01.123Z,7.70
2018-05-18T14:36:28.967Z,8.43
2018-05-18T14:38:57.175Z,6.40
2018-05-18T14:41:25.471Z,7.50
2018-05-18T14:43:53.401Z,7.00
2018-05-18T14:46:20.746Z,6.87
2018-05-18T14:48:48.227Z,7.57
2018-05-18T14:51:16.069Z,7.57
2018-05-18T14:53:44.256Z,6.87
2018-05-18T14:56:12.829Z,6.90
2018-05-18T14:58:40.367Z,7.37
2018-05-18T15:01:08.483Z,6.13
2018-05-18T15:03:37.052Z,6.23
2018-05-18T15:06:04.884Z,7.30
2018-05-18T15:08:33.107Z,6.10
2018-05-18T15:11:00.590Z,6.47
2018-05-18T15:13:28.398Z,6.60
2018-05-18T15:15:56.594Z,6.97
2018-05-18T15:18:24.028Z,7.67
2018-05-18T15:20:51.467Z,6.50
2018-05-18T15:23:19.674Z,6.00
2018-05-18T15:25:47.141Z,6.00
2018-05-18T15:28:14.592Z,7.17
2018-05-18T15:30:43.162Z,7.63
2018-05-18T15:33:10.592Z,6.30
2018-05-18T15:35:38.798Z,6.37
2018-05-18T15:38:06.999Z,5.97
2018-05-18T15:40:34.436Z,6.90
2018-05-18T15:43:01.867Z,6.10
2018-05-18T15:45:29.309Z,6.43
2018-05-18T15:47:57.140Z,5.67
2018-05-18T15:50:24.566Z,5.60
2018-05-18T15:52:52.003Z,6.30
2018-05-18T15:55:19.439Z,5.60
2018-05-18T15:57:47.647Z,6.03
2018-05-18T16:00:15.078Z,6.83
2018-05-18T16:02:43.334Z,6.43
2018-05-18T16:05:10.759Z,6.43
2018-05-18T16:07:38.203Z,7.30
2018-05-18T16:10:05.638Z,6.30
2018-05-18T16:12:33.085Z,6.10
2018-05-18T16:15:00.911Z,6.10
2018-05-18T16:17:28.762Z,6.00
2018-05-18T16:19:56.196Z,6.40
2018-05-18T16:22:23.651Z,6.57
2018-05-18T16:24:51.090Z,5.50
2018-05-18T16:27:18.938Z,4.37
2018-05-18T16:29:47.162Z,5.30
2018-05-18T16:32:14.620Z,5.83
2018-05-18T16:34:42.052Z,4.80
2018-05-18T16:37:09.491Z,6.07
2018-05-18T16:39:36.926Z,6.97
2018-05-18T16:42:05.148Z,6.50
2018-05-18T16:44:32.575Z,7.07
2018-05-18T16:47:00.426Z,7.10
2018-05-18T16:49:28.640Z,6.70
2018-05-18T16:51:56.470Z,6.40
2018-05-18T16:54:24.663Z,6.20
2018-05-18T16:56:52.511Z,6.13
2018-05-18T16:59:20.704Z,6.57
2018-05-18T17:01:48.144Z,5.70
2018-05-18T17:04:15.982Z,7.03
2018-05-18T17:06:43.433Z,6.37
2018-05-18T17:09:10.883Z,6.33
2018-05-18T17:11:38.331Z,8.17
2018-05-18T17:14:07.215Z,20.07
2018-05-18T17:16:35.053Z,20.70
2018-05-18T17:19:02.488Z,7.50
2018-05-18T17:21:30.327Z,41.67
2018-05-18T17:23:57.776Z,9.93
2018-05-18T17:26:25.211Z,7.30
2018-05-18T17:28:53.061Z,10.03
2018-05-18T17:31:20.890Z,7.43
2018-05-18T17:33:49.103Z,6.23
2018-05-18T17:36:16.543Z,6.60
2018-05-18T17:38:43.980Z,6.90
2018-05-18T17:41:12.183Z,7.10
2018-05-18T17:43:39.621Z,8.07
2018-05-18T17:46:07.053Z,8.33
2018-05-18T17:48:34.882Z,8.10
2018-05-18T17:51:02.315Z,6.90
2018-05-18T17:53:29.758Z,8.90
2018-05-18T17:55:57.191Z,7.90
2018-05-18T17:58:25.413Z,7.93
2018-05-18T18:00:53.252Z,8.17
2018-05-18T18:03:20.703Z,9.50
2018-05-18T18:05:48.140Z,8.63
2018-05-18T18:08:15.980Z,9.77
2018-05-18T18:10:43.419Z,7.50
2018-05-18T18:13:10.871Z,8.30
2018-05-18T18:15:38.315Z,8.50
2018-05-18T18:18:06.151Z,9.03
2018-05-18T18:20:34.405Z,8.80
2018-05-18T18:23:02.249Z,9.37
2018-05-18T18:25:30.455Z,10.80
2018-05-18T18:27:58.672Z,10.47
2018-05-18T18:30:26.105Z,10.07
2018-05-18T18:32:53.555Z,14.70
2018-05-18T18:35:21.784Z,10.60
2018-05-18T18:37:49.627Z,8.90
2018-05-18T18:40:18.228Z,11.57
2018-05-18T18:42:45.656Z,12.23
2018-05-18T18:45:13.110Z,10.73
2018-05-18T18:47:40.549Z,12.87
2018-05-18T18:50:07.994Z,13.10
2018-05-18T18:52:36.200Z,10.60
2018-05-18T18:55:04.037Z,9.90
2018-05-18T18:57:32.530Z,9.50
2018-05-18T18:59:59.964Z,11.10
2018-05-18T19:02:28.255Z,10.90
2018-05-18T19:04:56.459Z,10.70
2018-05-18T19:07:23.943Z,10.60
2018-05-18T19:09:52.252Z,9.93
2018-05-18T19:12:20.461Z,12.77
2018-05-18T19:14:47.906Z,12.30
2018-05-18T19:17:16.600Z,12.30
2018-05-18T19:19:44.279Z,11.33
2018-05-18T19:22:13.495Z,11.60
2018-05-18T19:24:41.735Z,12.93
2018-05-18T19:27:09.663Z,14.30
2018-05-18T19:29:37.554Z,14.20
2018-05-18T19:32:04.946Z,12.20
2018-05-18T19:34:32.382Z,9.73
2018-05-18T19:36:59.862Z,9.67
2018-05-18T19:39:27.700Z,10.20
2018-05-18T19:41:56.279Z,10.87
2018-05-18T19:44:23.807Z,11.00
2018-05-18T19:46:51.267Z,10.30
2018-05-18T19:49:19.471Z,10.17
2018-05-18T19:51:46.928Z,12.57
2018-05-18T19:54:14.402Z,13.53
2018-05-18T19:56:41.838Z,12.30
2018-05-18T19:59:09.277Z,13.63
2018-05-18T20:01:36.925Z,12.50
2018-05-18T20:04:05.143Z,12.70
2018-05-18T20:06:32.650Z,13.30
2018-05-18T20:09:00.856Z,10.77
2018-05-18T20:11:28.856Z,12.87
2018-05-18T20:13:56.294Z,11.50
2018-05-18T20:16:23.746Z,12.03
2018-05-18T20:18:51.186Z,12.03
2018-05-18T20:21:19.036Z,12.67
2018-05-18T20:23:46.860Z,14.23
2018-05-18T20:26:14.296Z,15.20
2018-05-18T20:28:41.741Z,15.63
2018-05-18T20:31:09.575Z,14.67
2018-05-18T20:33:37.777Z,15.07
2018-05-18T20:36:05.210Z,15.20
2018-05-18T20:38:32.646Z,16.07
2018-05-18T20:41:00.082Z,17.77
2018-05-18T20:43:28.659Z,15.83
2018-05-18T20:45:56.108Z,17.00
2018-05-18T20:48:23.551Z,15.20
2018-05-18T20:50:50.997Z,12.13
2018-05-18T20:53:19.191Z,12.87
2018-05-18T20:55:46.643Z,12.67
2018-05-18T20:58:14.080Z,11.47
2018-05-18T21:00:41.519Z,11.83
2018-05-18T21:03:08.965Z,13.57
2018-05-18T21:05:37.184Z,12.90
2018-05-18T21:08:04.626Z,13.23
2018-05-18T21:10:32.136Z,13.47
2018-05-18T21:12:59.898Z,12.90
2018-05-18T21:15:27.334Z,12.80
2018-05-18T21:17:54.773Z,12.60
2018-05-18T21:20:22.214Z,13.57
2018-05-18T21:22:50.419Z,12.50
2018-05-18T21:25:17.855Z,13.10
2018-05-18T21:27:45.303Z,12.80
2018-05-18T21:30:13.884Z,12.17
2018-05-18T21:32:41.334Z,12.77
2018-05-18T21:35:08.763Z,12.90
2018-05-18T21:37:36.971Z,13.50
2018-05-18T21:40:04.413Z,13.10
2018-05-18T21:42:31.852Z,13.47
2018-05-18T21:45:00.062Z,12.97
2018-05-18T21:47:27.511Z,12.37
2018-05-18T21:49:56.090Z,14.60
2018-05-18T21:52:23.536Z,12.87
2018-05-18T21:54:50.971Z,13.83
2018-05-18T21:57:19.189Z,13.23
2018-05-18T21:59:46.630Z,13.27
2018-05-18T22:02:14.059Z,13.47
2018-05-18T22:04:42.276Z,14.27
2018-05-18T22:07:09.731Z,13.63
2018-05-18T22:09:37.153Z,13.70
2018-05-18T22:12:04.615Z,14.00
2018-05-18T22:14:32.061Z,14.10
2018-05-18T22:17:00.723Z,15.20
2018-05-18T22:19:28.164Z,14.17
2018-05-18T22:21:55.605Z,14.47
2018-05-18T22:24:23.044Z,15.43
2018-05-18T22:26:50.508Z,16.00
2018-05-18T22:29:17.931Z,15.43
2018-05-18T22:31:45.359Z,15.30
2018-05-18T22:34:12.804Z,15.03
2018-05-18T22:36:40.635Z,15.10
2018-05-18T22:39:08.075Z,16.87
2018-05-18T22:41:35.516Z,14.57
2018-05-18T22:44:02.963Z,17.33
2018-05-18T22:46:31.167Z,15.77
2018-05-18T22:48:58.603Z,15.80
2018-05-18T22:51:26.864Z,16.47
2018-05-18T22:53:55.080Z,15.93
2018-05-18T22:56:22.518Z,16.93
2018-05-18T22:58:49.967Z,17.10
2018-05-18T23:01:17.407Z,16.40
2018-05-18T23:03:44.838Z,16.20
2018-05-18T23:06:12.273Z,17.30
2018-05-18T23:08:39.732Z,17.87
2018-05-18T23:11:07.172Z,16.47
2018-05-18T23:13:34.611Z,16.60
2018-05-18T23:16:02.047Z,17.60
2018-05-18T23:18:30.255Z,17.83
2018-05-18T23:20:57.701Z,15.33
2018-05-18T23:23:25.142Z,16.73
2018-05-18T23:25:52.653Z,16.67
2018-05-18T23:28:20.017Z,16.93
2018-05-18T23:30:47.453Z,17.70
2018-05-18T23:33:14.899Z,17.00
2018-05-18T23:35:42.345Z,16.63
2018-05-18T23:38:09.788Z,16.33
2018-05-18T23:40:37.220Z,15.37
2018-05-18T23:43:05.422Z,16.30
2018-05-18T23:45:32.843Z,17.87
2018-05-18T23:48:00.307Z,16.90
2018-05-18T23:50:28.522Z,16.80
2018-05-18T23:52:55.950Z,17.37
2018-05-18T23:55:23.387Z,16.77
2018-05-18T23:57:51.580Z,17.13
